createdAt,value
2022-10-08T00:01:21.412Z,65.73
2022-10-08T00:03:53.489Z,65.91
2022-10-08T00:06:26.846Z,66.03
2022-10-08T00:08:55.342Z,66.57
2022-10-08T00:11:25.411Z,66.44
2022-10-08T00:13:54.339Z,66.45
2022-10-08T00:16:24.943Z,66.47
2022-10-08T00:18:54.837Z,66.12
2022-10-08T00:21:23.804Z,66.30
2022-10-08T00:23:53.253Z,66.15
2022-10-08T00:26:24.491Z,66.22
2022-10-08T00:28:54.181Z,65.76
2022-10-08T00:31:28.081Z,65.88
2022-10-08T00:33:57.677Z,65.83
2022-10-08T00:36:27.185Z,65.57
2022-10-08T00:39:07.234Z,65.60
2022-10-08T00:41:37.461Z,65.42
2022-10-08T00:44:43.030Z,65.79
2022-10-08T00:47:31.487Z,65.90
2022-10-08T00:50:22.593Z,65.83
2022-10-08T00:53:01.477Z,65.82
2022-10-08T00:55:30.063Z,65.67
2022-10-08T00:58:01.358Z,65.37
2022-10-08T01:00:29.470Z,65.26
2022-10-08T01:02:56.854Z,65.37
2022-10-08T01:05:49.287Z,65.23
2022-10-08T01:08:35.196Z,65.24
2022-10-08T01:11:55.013Z,65.58
2022-10-08T01:14:57.035Z,65.67
2022-10-08T01:17:37.953Z,65.78
2022-10-08T01:20:51.353Z,65.88
2022-10-08T01:24:09.285Z,66.09
2022-10-08T01:26:51.363Z,66.06
2022-10-08T01:29:37.632Z,65.87
2022-10-08T01:32:09.111Z,65.22
2022-10-08T01:34:49.659Z,65.57
2022-10-08T01:37:41.450Z,65.57
2022-10-08T01:40:15.308Z,65.86
2022-10-08T01:43:00.106Z,66.13
2022-10-08T01:45:33.664Z,66.30
2022-10-08T01:48:04.616Z,66.64
2022-10-08T01:50:38.034Z,66.39
2022-10-08T01:53:07.978Z,66.30
2022-10-08T01:55:37.790Z,66.07
2022-10-08T01:58:09.812Z,65.96
2022-10-08T02:00:41.558Z,66.04
2022-10-08T02:03:14.005Z,65.84
2022-10-08T02:05:48.930Z,66.39
2022-10-08T02:08:16.572Z,65.89
2022-10-08T02:10:45.438Z,65.96
2022-10-08T02:13:14.521Z,65.91
2022-10-08T02:16:05.728Z,65.05
2022-10-08T02:18:42.211Z,65.13
2022-10-08T02:21:28.405Z,65.14
2022-10-08T02:23:58.462Z,65.03
2022-10-08T02:26:35.227Z,65.77
2022-10-08T02:29:25.244Z,65.77
2022-10-08T02:32:01.731Z,65.86
2022-10-08T02:35:07.530Z,66.00
2022-10-08T02:37:42.730Z,66.13
2022-10-08T02:40:13.750Z,66.05
2022-10-08T02:42:47.107Z,65.98
2022-10-08T02:45:16.968Z,66.49
2022-10-08T02:47:47.997Z,66.35
2022-10-08T02:50:21.098Z,66.43
2022-10-08T02:52:51.350Z,66.41
2022-10-08T02:55:48.865Z,66.24
2022-10-08T02:58:17.020Z,66.44
2022-10-08T03:00:57.682Z,66.65
2022-10-08T03:03:38.545Z,66.54
2022-10-08T03:06:10.023Z,66.53
2022-10-08T03:08:43.508Z,66.36
2022-10-08T03:11:11.399Z,66.70
2022-10-08T03:13:42.743Z,66.25
2022-10-08T03:16:16.360Z,66.65
2022-10-08T03:18:44.885Z,67.00
2022-10-08T03:21:14.593Z,66.54
2022-10-08T03:23:42.505Z,67.47
2022-10-08T03:26:09.805Z,66.49
2022-10-08T03:28:37.658Z,66.16
2022-10-08T03:31:08.454Z,66.83
2022-10-08T03:33:36.117Z,66.91
2022-10-08T03:36:04.371Z,66.50
2022-10-08T03:38:34.167Z,67.39
2022-10-08T03:41:01.928Z,67.05
2022-10-08T03:43:35.988Z,67.19
2022-10-08T03:46:04.299Z,67.08
2022-10-08T03:48:31.997Z,66.78
2022-10-08T03:51:05.007Z,68.11
2022-10-08T03:53:43.489Z,67.67
2022-10-08T03:56:17.583Z,68.11
2022-10-08T03:58:46.380Z,67.65
2022-10-08T04:01:17.624Z,67.88
2022-10-08T04:03:48.313Z,68.08
2022-10-08T04:06:19.510Z,67.36
2022-10-08T04:08:46.751Z,67.65
2022-10-08T04:11:18.356Z,67.63
2022-10-08T04:13:46.029Z,67.59
2022-10-08T04:16:15.765Z,67.17
2022-10-08T04:18:44.079Z,67.32
2022-10-08T04:21:14.204Z,67.21
2022-10-08T04:23:45.302Z,66.91
2022-10-08T04:26:14.434Z,66.43
2022-10-08T04:28:45.167Z,66.54
2022-10-08T04:31:20.005Z,66.46
2022-10-08T04:33:50.820Z,66.24
2022-10-08T04:36:20.627Z,66.37
2022-10-08T04:38:50.803Z,66.47
2022-10-08T04:41:23.926Z,66.30
2022-10-08T04:43:55.848Z,66.17
2022-10-08T04:46:23.266Z,66.29
2022-10-08T04:48:53.538Z,66.07
2022-10-08T04:51:26.576Z,66.05
2022-10-08T04:53:55.821Z,65.92
2022-10-08T04:56:27.580Z,66.49
2022-10-08T04:58:55.428Z,66.14
2022-10-08T05:01:23.529Z,65.57
2022-10-08T05:03:53.892Z,65.32
2022-10-08T05:06:30.158Z,65.85
2022-10-08T05:08:59.279Z,65.69
2022-10-08T05:11:27.816Z,65.14
2022-10-08T05:13:58.768Z,64.95
2022-10-08T05:16:26.731Z,65.11
2022-10-08T05:18:56.303Z,65.18
2022-10-08T05:21:27.063Z,64.71
2022-10-08T05:24:00.104Z,64.80
2022-10-08T05:29:23.991Z,65.15
2022-10-08T05:31:56.904Z,64.85
2022-10-08T05:34:28.515Z,65.18
2022-10-08T05:37:01.100Z,65.30
2022-10-08T05:39:28.367Z,65.30
2022-10-08T05:42:05.989Z,65.13
2022-10-08T05:44:39.858Z,65.12
2022-10-08T05:47:20.128Z,65.06
2022-10-08T05:49:54.087Z,64.57
2022-10-08T05:52:38.764Z,64.69
2022-10-08T05:55:23.138Z,64.67
2022-10-08T05:57:58.547Z,64.38
2022-10-08T06:00:32.962Z,64.01
2022-10-08T06:03:05.680Z,64.08
2022-10-08T06:05:47.095Z,63.66
2022-10-08T06:08:21.244Z,63.81
2022-10-08T06:10:55.707Z,64.03
2022-10-08T06:13:37.531Z,63.93
2022-10-08T06:16:15.479Z,63.84
2022-10-08T06:19:05.769Z,63.59
2022-10-08T06:21:48.327Z,63.76
2022-10-08T06:24:32.266Z,63.84
2022-10-08T06:27:10.043Z,64.53
2022-10-08T06:29:48.739Z,64.23
2022-10-08T06:32:24.898Z,64.75
2022-10-08T06:35:01.617Z,64.94
2022-10-08T06:37:40.840Z,64.91
2022-10-08T06:40:20.803Z,64.63
2022-10-08T06:43:17.267Z,64.44
2022-10-08T06:45:56.568Z,64.49
2022-10-08T06:48:36.428Z,64.48
2022-10-08T06:51:16.573Z,64.81
2022-10-08T06:54:07.994Z,64.55
2022-10-08T06:56:38.078Z,64.13
2022-10-08T06:59:06.630Z,64.30
2022-10-08T07:04:44.063Z,63.98
2022-10-08T07:07:37.507Z,63.99
2022-10-08T07:10:37.918Z,64.33
2022-10-08T07:13:07.151Z,64.28
2022-10-08T07:15:50.225Z,64.51
2022-10-08T07:18:26.845Z,64.49
2022-10-08T07:20:59.552Z,64.71
2022-10-08T07:23:29.530Z,64.26
2022-10-08T07:26:01.958Z,63.95
2022-10-08T07:28:31.282Z,64.03
2022-10-08T07:31:03.565Z,64.76
2022-10-08T07:33:30.716Z,63.97
2022-10-08T07:36:11.294Z,63.91
2022-10-08T07:38:46.854Z,64.49
2022-10-08T07:41:17.832Z,64.00
2022-10-08T07:43:46.048Z,63.89
2022-10-08T07:46:14.682Z,63.90
2022-10-08T07:48:44.491Z,63.70
2022-10-08T07:51:27.859Z,63.72
2022-10-08T07:54:03.005Z,63.69
2022-10-08T07:56:39.122Z,63.71
2022-10-08T07:59:07.140Z,63.31
2022-10-08T08:01:34.836Z,63.13
2022-10-08T08:04:10.851Z,62.64
2022-10-08T08:06:44.171Z,62.93
2022-10-08T08:09:12.303Z,62.94
2022-10-08T08:11:40.367Z,62.92
2022-10-08T08:14:08.367Z,62.80
2022-10-08T08:16:37.562Z,62.43
2022-10-08T08:19:06.488Z,62.63
2022-10-08T08:21:38.397Z,61.90
2022-10-08T08:24:25.900Z,62.05
2022-10-08T08:26:57.826Z,61.70
2022-10-08T08:29:31.189Z,61.27
2022-10-08T08:32:07.403Z,60.68
2022-10-08T08:34:38.996Z,60.34
2022-10-08T08:37:19.998Z,60.12
2022-10-08T08:39:54.954Z,59.99
2022-10-08T08:42:51.893Z,59.47
2022-10-08T08:45:46.865Z,59.45
2022-10-08T08:48:27.604Z,59.06
2022-10-08T08:51:08.397Z,58.72
2022-10-08T08:53:39.386Z,59.42
2022-10-08T08:56:19.008Z,58.98
2022-10-08T08:59:30.492Z,58.01
2022-10-08T09:02:01.930Z,57.94
2022-10-08T09:05:49.671Z,57.75
2022-10-08T09:08:37.656Z,56.52
2022-10-08T09:11:19.779Z,56.36
2022-10-08T09:14:15.025Z,55.06
2022-10-08T09:17:26.904Z,55.70
2022-10-08T09:20:27.475Z,54.10
2022-10-08T09:23:17.991Z,53.19
2022-10-08T09:26:18.968Z,51.96
2022-10-08T09:29:06.469Z,50.99
2022-10-08T09:32:34.822Z,50.15
2022-10-08T09:35:53.098Z,49.91
2022-10-08T09:38:52.426Z,50.13
2022-10-08T09:41:43.677Z,49.78
2022-10-08T09:44:17.801Z,50.32
2022-10-08T09:47:16.497Z,49.85
2022-10-08T09:50:41.723Z,49.63
2022-10-08T09:53:24.614Z,49.75
2022-10-08T09:56:14.049Z,49.56
2022-10-08T09:58:55.345Z,49.31
2022-10-08T10:01:27.536Z,49.31
2022-10-08T10:04:11.810Z,49.24
2022-10-08T10:06:55.069Z,48.85
2022-10-08T10:09:50.524Z,48.87
2022-10-08T10:12:24.861Z,48.74
2022-10-08T10:15:06.527Z,48.16
2022-10-08T10:18:01.595Z,48.95
2022-10-08T10:20:54.361Z,47.58
2022-10-08T10:24:03.197Z,46.62
2022-10-08T10:26:53.536Z,46.49
2022-10-08T10:29:39.034Z,45.31
2022-10-08T10:32:31.007Z,44.42
2022-10-08T10:35:33.204Z,44.03
2022-10-08T10:38:21.871Z,44.29
2022-10-08T10:41:25.249Z,43.85
2022-10-08T10:44:04.230Z,43.75
2022-10-08T10:46:44.602Z,43.98
2022-10-08T10:49:23.374Z,45.11
2022-10-08T10:52:34.455Z,44.98
2022-10-08T10:56:06.987Z,45.19
2022-10-08T10:59:08.178Z,45.20
2022-10-08T11:01:53.528Z,44.26
2022-10-08T11:08:24.705Z,42.78
2022-10-08T11:11:37.432Z,42.18
2022-10-08T11:14:34.587Z,41.01
2022-10-08T11:17:51.111Z,41.51
2022-10-08T11:21:11.185Z,41.23
2022-10-08T11:24:19.367Z,41.54
2022-10-08T11:27:42.635Z,41.63
2022-10-08T11:30:45.175Z,41.98
2022-10-08T11:33:19.105Z,42.32
2022-10-08T11:36:16.347Z,42.33
2022-10-08T11:42:48.377Z,43.60
2022-10-08T11:45:40.444Z,42.91
2022-10-08T11:51:55.138Z,41.95
2022-10-08T11:54:35.576Z,41.86
2022-10-08T12:01:01.780Z,42.82
2022-10-08T12:04:13.811Z,43.21
2022-10-08T12:06:41.086Z,43.93
2022-10-08T12:09:25.117Z,43.05
2022-10-08T12:11:55.831Z,43.05
2022-10-08T12:14:24.594Z,43.08
2022-10-08T12:17:02.607Z,41.94
2022-10-08T12:19:33.295Z,41.02
2022-10-08T12:22:19.400Z,41.59
2022-10-08T12:25:04.130Z,41.32
2022-10-08T12:27:40.532Z,42.12
2022-10-08T12:31:09.773Z,41.81
2022-10-08T12:33:43.951Z,42.66
2022-10-08T12:36:32.645Z,42.25
2022-10-08T12:39:43.008Z,43.11
2022-10-08T12:42:19.869Z,43.56
2022-10-08T12:45:12.411Z,44.07
2022-10-08T12:48:06.083Z,43.94
2022-10-08T12:50:36.594Z,44.36
2022-10-08T12:53:19.308Z,43.85
2022-10-08T12:55:54.252Z,42.74
2022-10-08T12:58:42.186Z,43.43
2022-10-08T13:01:38.709Z,43.10
2022-10-08T13:04:38.443Z,42.45
2022-10-08T13:07:38.727Z,42.14
2022-10-08T13:13:45.475Z,42.26
2022-10-08T13:16:17.260Z,43.26
2022-10-08T13:18:53.483Z,42.80
2022-10-08T13:22:02.116Z,42.07
2022-10-08T13:24:32.505Z,42.90
2022-10-08T13:27:02.171Z,43.54
2022-10-08T13:29:48.230Z,43.72
2022-10-08T13:32:43.037Z,43.23
2022-10-08T13:35:30.749Z,43.56
2022-10-08T13:38:14.942Z,42.80
2022-10-08T13:40:51.234Z,43.05
2022-10-08T13:43:27.203Z,43.02
2022-10-08T13:46:10.617Z,42.69
2022-10-08T13:48:44.934Z,42.75
2022-10-08T13:51:15.339Z,42.79
2022-10-08T13:53:53.604Z,42.71
2022-10-08T13:56:28.822Z,42.71
2022-10-08T13:59:02.306Z,43.23
2022-10-08T14:01:38.370Z,43.06
2022-10-08T14:04:17.895Z,43.40
2022-10-08T14:09:32.481Z,43.04
2022-10-08T14:12:04.702Z,42.46
2022-10-08T14:14:35.636Z,42.44
2022-10-08T14:17:08.883Z,42.14
2022-10-08T14:19:41.918Z,42.34
2022-10-08T14:22:19.590Z,42.71
2022-10-08T14:24:52.017Z,42.67
2022-10-08T14:27:24.476Z,42.84
2022-10-08T14:30:03.318Z,43.30
2022-10-08T14:32:46.717Z,43.78
2022-10-08T14:35:29.872Z,44.79
2022-10-08T14:38:03.192Z,44.67
2022-10-08T14:40:33.409Z,44.57
2022-10-08T14:43:06.223Z,45.57
2022-10-08T14:45:44.257Z,45.42
2022-10-08T14:48:14.414Z,46.12
2022-10-08T14:50:53.060Z,46.49
2022-10-08T14:53:28.717Z,47.11
2022-10-08T14:56:12.537Z,47.28
2022-10-08T14:58:45.828Z,47.38
2022-10-08T15:01:27.681Z,47.83
2022-10-08T15:04:09.975Z,47.50
2022-10-08T15:06:44.709Z,48.16
2022-10-08T15:09:17.080Z,47.90
2022-10-08T15:11:59.386Z,48.01
2022-10-08T15:14:37.071Z,48.05
2022-10-08T15:17:13.266Z,48.11
2022-10-08T15:19:40.517Z,48.76
2022-10-08T15:22:18.765Z,48.70
2022-10-08T15:25:41.181Z,49.15
2022-10-08T15:41:54.583Z,49.60
2022-10-08T15:47:57.181Z,49.37
2022-10-08T15:53:43.448Z,50.27
2022-10-08T15:59:38.438Z,51.30
2022-10-08T16:02:22.306Z,50.52
2022-10-08T16:04:57.689Z,50.77
2022-10-08T16:10:37.041Z,50.55
2022-10-08T16:13:14.427Z,50.28
2022-10-08T16:15:59.012Z,50.08
2022-10-08T16:18:30.626Z,50.46
2022-10-08T16:21:07.151Z,50.78
2022-10-08T16:23:44.802Z,51.15
2022-10-08T16:26:27.144Z,50.74
2022-10-08T16:29:13.818Z,51.16
2022-10-08T16:32:17.521Z,51.02
2022-10-08T16:34:53.448Z,50.62
2022-10-08T16:37:26.870Z,51.19
2022-10-08T16:40:07.130Z,51.10
2022-10-08T16:45:23.646Z,50.86
2022-10-08T16:47:50.903Z,50.94
2022-10-08T16:50:25.833Z,50.80
2022-10-08T16:52:53.605Z,51.11
2022-10-08T16:55:21.015Z,51.45
2022-10-08T16:57:51.586Z,51.24
2022-10-08T17:00:22.126Z,51.31
2022-10-08T17:02:52.939Z,51.33
2022-10-08T17:05:23.280Z,51.47
2022-10-08T17:07:58.904Z,51.43
2022-10-08T17:10:39.018Z,50.91
2022-10-08T17:13:06.569Z,51.19
2022-10-08T17:15:51.242Z,51.45
2022-10-08T17:21:53.545Z,52.22
2022-10-08T17:24:28.943Z,51.79
2022-10-08T17:27:15.434Z,51.81
2022-10-08T17:29:47.429Z,51.45
2022-10-08T17:32:39.764Z,51.20
2022-10-08T17:35:23.270Z,50.94
2022-10-08T17:37:59.150Z,50.92
2022-10-08T17:40:36.315Z,50.51
2022-10-08T17:43:15.342Z,50.57
2022-10-08T17:45:45.814Z,50.85
2022-10-08T17:48:17.938Z,50.56
2022-10-08T17:50:54.358Z,49.79
2022-10-08T17:56:24.415Z,49.81
2022-10-08T17:59:02.459Z,50.56
2022-10-08T18:04:28.554Z,50.69
2022-10-08T18:07:03.153Z,50.08
2022-10-08T18:09:34.183Z,50.22
2022-10-08T18:12:01.464Z,49.63
2022-10-08T18:14:28.954Z,49.92
2022-10-08T18:17:21.371Z,49.05
2022-10-08T18:20:10.405Z,48.98
2022-10-08T18:22:45.081Z,48.82
2022-10-08T18:25:26.686Z,48.62
2022-10-08T18:28:01.221Z,48.82
2022-10-08T18:30:42.343Z,48.58
2022-10-08T18:33:15.799Z,48.69
2022-10-08T18:35:46.422Z,48.66
2022-10-08T18:38:30.641Z,48.76
2022-10-08T18:41:23.458Z,49.20
2022-10-08T18:44:31.774Z,49.36
2022-10-08T18:47:18.134Z,49.12
2022-10-08T18:49:59.637Z,48.89
2022-10-08T18:52:33.927Z,48.81
2022-10-08T18:55:20.983Z,48.71
2022-10-08T18:58:03.171Z,48.80
2022-10-08T19:03:49.169Z,49.29
2022-10-08T19:06:42.603Z,49.53
2022-10-08T19:09:27.404Z,49.53
2022-10-08T19:15:09.840Z,49.14
2022-10-08T19:17:58.681Z,48.99
2022-10-08T19:20:57.521Z,49.15
2022-10-08T19:23:46.300Z,49.75
2022-10-08T19:27:00.168Z,49.62
2022-10-08T19:29:44.690Z,49.36
2022-10-08T19:32:26.656Z,49.69
2022-10-08T19:35:02.696Z,49.04
2022-10-08T19:37:39.242Z,49.16
2022-10-08T19:40:24.813Z,49.19
2022-10-08T19:43:07.396Z,49.45
2022-10-08T19:45:50.940Z,49.61
2022-10-08T19:48:27.493Z,49.29
2022-10-08T19:51:24.679Z,48.74
2022-10-08T19:54:14.285Z,49.04
2022-10-08T19:57:09.678Z,49.13
2022-10-08T19:59:53.038Z,49.49
2022-10-08T20:02:36.489Z,49.36
2022-10-08T20:05:44.273Z,49.73
2022-10-08T20:08:37.695Z,49.83
2022-10-08T20:11:32.846Z,50.28
2022-10-08T20:14:16.357Z,50.06
2022-10-08T20:20:33.388Z,51.33
2022-10-08T20:23:17.874Z,51.71
2022-10-08T20:26:20.142Z,52.90
2022-10-08T20:29:43.948Z,53.69
2022-10-08T20:32:31.042Z,54.17
2022-10-08T20:35:25.020Z,54.08
2022-10-08T20:38:26.435Z,54.68
2022-10-08T20:41:07.041Z,54.41
2022-10-08T20:43:59.716Z,54.74
2022-10-08T20:47:12.487Z,54.23
2022-10-08T20:50:21.293Z,54.55
2022-10-08T20:52:49.797Z,54.05
2022-10-08T20:55:20.451Z,54.57
2022-10-08T20:57:51.186Z,54.72
2022-10-08T21:00:21.766Z,54.35
2022-10-08T21:02:49.691Z,54.30
2022-10-08T21:05:18.178Z,54.64
2022-10-08T21:07:45.544Z,54.86
2022-10-08T21:10:12.879Z,54.60
2022-10-08T21:12:46.809Z,54.71
2022-10-08T21:15:17.432Z,54.46
2022-10-08T21:17:48.225Z,54.10
2022-10-08T21:20:16.126Z,54.31
2022-10-08T21:22:46.148Z,54.00
2022-10-08T21:25:14.316Z,54.01
2022-10-08T21:27:43.227Z,54.31
2022-10-08T21:30:17.956Z,53.95
2022-10-08T21:32:51.628Z,54.29
2022-10-08T21:35:18.957Z,54.34
2022-10-08T21:37:46.253Z,54.40
2022-10-08T21:40:14.145Z,54.64
2022-10-08T21:42:42.265Z,54.52
2022-10-08T21:45:13.442Z,54.50
2022-10-08T21:47:46.393Z,54.80
2022-10-08T21:50:17.869Z,54.71
2022-10-08T21:52:57.082Z,54.49
2022-10-08T21:55:24.863Z,55.30
2022-10-08T21:57:59.127Z,55.50
2022-10-08T22:00:38.034Z,54.95
2022-10-08T22:03:14.359Z,55.08
2022-10-08T22:05:56.279Z,55.00
2022-10-08T22:08:32.624Z,55.56
2022-10-08T22:11:07.053Z,55.44
2022-10-08T22:13:36.098Z,55.05
2022-10-08T22:16:19.239Z,55.57
2022-10-08T22:18:46.783Z,55.64
2022-10-08T22:21:21.849Z,55.91
2022-10-08T22:23:50.570Z,55.51
2022-10-08T22:26:25.593Z,55.79
2022-10-08T22:28:52.820Z,55.99
2022-10-08T22:31:20.842Z,55.40
2022-10-08T22:33:49.571Z,55.99
2022-10-08T22:36:24.115Z,56.33
2022-10-08T22:38:52.340Z,56.30
2022-10-08T22:41:26.444Z,56.71
2022-10-08T22:43:54.924Z,56.55
2022-10-08T22:46:31.774Z,56.73
2022-10-08T22:49:00.763Z,56.40
2022-10-08T22:51:28.851Z,56.63
2022-10-08T22:53:56.281Z,56.15
2022-10-08T22:56:26.431Z,56.25
2022-10-08T22:58:53.700Z,56.54
2022-10-08T23:01:26.648Z,56.72
2022-10-08T23:03:54.437Z,56.67
2022-10-08T23:06:27.647Z,56.78
2022-10-08T23:09:01.312Z,56.83
2022-10-08T23:11:30.146Z,56.64
2022-10-08T23:13:58.687Z,56.79
2022-10-08T23:16:28.291Z,56.72
2022-10-08T23:19:10.969Z,56.98
2022-10-08T23:21:41.611Z,57.02
2022-10-08T23:24:11.618Z,56.89
2022-10-08T23:26:39.148Z,56.96
2022-10-08T23:29:06.258Z,57.12
2022-10-08T23:31:36.506Z,57.11
2022-10-08T23:34:05.313Z,56.82
2022-10-08T23:36:40.827Z,57.28
2022-10-08T23:39:12.900Z,57.14
2022-10-08T23:41:42.890Z,57.12
2022-10-08T23:44:11.659Z,57.34
2022-10-08T23:46:38.781Z,57.34
2022-10-08T23:49:08.986Z,57.51
2022-10-08T23:51:36.336Z,57.53
2022-10-08T23:54:03.577Z,57.41
2022-10-08T23:56:31.036Z,57.64
